sensor_id;sensor_type;location;lat;lon;timestamp;temperature;humidity
48994;DHT22;34804;49.214;12.276;2023-11-19T00:01:44;4.40;94.00
48994;DHT22;34804;49.214;12.276;2023-11-19T00:04:11;4.40;93.80
48994;DHT22;34804;49.214;12.276;2023-11-19T00:06:38;4.40;93.80
48994;DHT22;34804;49.214;12.276;2023-11-19T00:09:04;4.40;93.60
48994;DHT22;34804;49.214;12.276;2023-11-19T00:11:32;4.40;93.80
48994;DHT22;34804;49.214;12.276;2023-11-19T00:13:58;4.40;93.80
48994;DHT22;34804;49.214;12.276;2023-11-19T00:16:25;4.40;93.90
48994;DHT22;34804;49.214;12.276;2023-11-19T00:18:52;4.40;93.70
48994;DHT22;34804;49.214;12.276;2023-11-19T00:21:19;4.40;93.90
48994;DHT22;34804;49.214;12.276;2023-11-19T00:23:46;4.40;93.80
48994;DHT22;34804;49.214;12.276;2023-11-19T00:26:13;4.40;93.60
48994;DHT22;34804;49.214;12.276;2023-11-19T00:28:40;4.40;93.80
48994;DHT22;34804;49.214;12.276;2023-11-19T00:31:07;4.50;93.90
48994;DHT22;34804;49.214;12.276;2023-11-19T00:33:34;4.40;93.80
48994;DHT22;34804;49.214;12.276;2023-11-19T00:36:00;4.40;93.80
48994;DHT22;34804;49.214;12.276;2023-11-19T00:38:27;4.50;93.90
48994;DHT22;34804;49.214;12.276;2023-11-19T00:40:54;4.50;93.90
48994;DHT22;34804;49.214;12.276;2023-11-19T00:43:21;4.40;93.90
48994;DHT22;34804;49.214;12.276;2023-11-19T00:45:48;4.40;93.80
48994;DHT22;34804;49.214;12.276;2023-11-19T00:48:17;4.40;93.70
48994;DHT22;34804;49.214;12.276;2023-11-19T00:50:44;4.40;93.90
48994;DHT22;34804;49.214;12.276;2023-11-19T00:53:12;4.40;93.90
48994;DHT22;34804;49.214;12.276;2023-11-19T00:55:39;4.40;93.80
48994;DHT22;34804;49.214;12.276;2023-11-19T00:58:08;4.40;93.90
48994;DHT22;34804;49.214;12.276;2023-11-19T01:00:35;4.30;94.00
48994;DHT22;34804;49.214;12.276;2023-11-19T01:03:02;4.40;93.90
48994;DHT22;34804;49.214;12.276;2023-11-19T01:05:29;4.40;94.00
48994;DHT22;34804;49.214;12.276;2023-11-19T01:07:56;4.40;94.00
48994;DHT22;34804;49.214;12.276;2023-11-19T01:10:23;4.50;94.00
48994;DHT22;34804;49.214;12.276;2023-11-19T01:12:51;4.40;94.00
48994;DHT22;34804;49.214;12.276;2023-11-19T01:15:18;4.40;93.70
48994;DHT22;34804;49.214;12.276;2023-11-19T01:17:46;4.40;93.80
48994;DHT22;34804;49.214;12.276;2023-11-19T01:20:15;4.40;93.70
48994;DHT22;34804;49.214;12.276;2023-11-19T01:22:42;4.40;94.10
48994;DHT22;34804;49.214;12.276;2023-11-19T01:25:10;4.40;94.00
48994;DHT22;34804;49.214;12.276;2023-11-19T01:27:36;4.30;94.10
48994;DHT22;34804;49.214;12.276;2023-11-19T01:30:04;4.40;94.20
48994;DHT22;34804;49.214;12.276;2023-11-19T01:32:32;4.40;94.30
48994;DHT22;34804;49.214;12.276;2023-11-19T01:34:59;4.40;94.30
48994;DHT22;34804;49.214;12.276;2023-11-19T01:37:26;4.40;94.30
48994;DHT22;34804;49.214;12.276;2023-11-19T01:39:53;4.40;94.40
48994;DHT22;34804;49.214;12.276;2023-11-19T01:42:22;4.40;94.30
48994;DHT22;34804;49.214;12.276;2023-11-19T01:45:00;4.50;94.30
48994;DHT22;34804;49.214;12.276;2023-11-19T01:47:30;4.50;94.20
48994;DHT22;34804;49.214;12.276;2023-11-19T01:49:57;4.40;93.90
48994;DHT22;34804;49.214;12.276;2023-11-19T01:52:25;4.40;94.00
48994;DHT22;34804;49.214;12.276;2023-11-19T01:54:53;4.40;94.00
48994;DHT22;34804;49.214;12.276;2023-11-19T01:57:22;4.40;94.00
48994;DHT22;34804;49.214;12.276;2023-11-19T01:59:50;4.30;94.10
48994;DHT22;34804;49.214;12.276;2023-11-19T02:02:19;4.30;94.20
48994;DHT22;34804;49.214;12.276;2023-11-19T02:04:50;4.40;94.30
48994;DHT22;34804;49.214;12.276;2023-11-19T02:07:18;4.40;94.30
48994;DHT22;34804;49.214;12.276;2023-11-19T02:09:45;4.40;94.40
48994;DHT22;34804;49.214;12.276;2023-11-19T02:12:11;4.40;94.50
48994;DHT22;34804;49.214;12.276;2023-11-19T02:14:38;4.40;94.30
48994;DHT22;34804;49.214;12.276;2023-11-19T02:17:05;4.40;94.30
48994;DHT22;34804;49.214;12.276;2023-11-19T02:19:32;4.40;94.40
48994;DHT22;34804;49.214;12.276;2023-11-19T02:21:59;4.40;94.50
48994;DHT22;34804;49.214;12.276;2023-11-19T02:24:30;4.40;94.60
48994;DHT22;34804;49.214;12.276;2023-11-19T02:27:02;4.50;94.60
48994;DHT22;34804;49.214;12.276;2023-11-19T02:29:32;4.50;94.50
48994;DHT22;34804;49.214;12.276;2023-11-19T02:32:01;4.50;94.60
48994;DHT22;34804;49.214;12.276;2023-11-19T02:34:28;4.50;94.60
48994;DHT22;34804;49.214;12.276;2023-11-19T02:36:55;4.50;94.60
48994;DHT22;34804;49.214;12.276;2023-11-19T02:39:22;4.50;94.60
48994;DHT22;34804;49.214;12.276;2023-11-19T02:41:49;4.50;94.50
48994;DHT22;34804;49.214;12.276;2023-11-19T02:44:19;4.50;94.50
48994;DHT22;34804;49.214;12.276;2023-11-19T02:46:46;4.50;94.60
48994;DHT22;34804;49.214;12.276;2023-11-19T02:49:15;4.50;94.40
48994;DHT22;34804;49.214;12.276;2023-11-19T02:51:42;4.50;94.50
48994;DHT22;34804;49.214;12.276;2023-11-19T02:54:09;4.40;94.60
48994;DHT22;34804;49.214;12.276;2023-11-19T02:56:37;4.50;94.60
48994;DHT22;34804;49.214;12.276;2023-11-19T02:59:05;4.50;94.50
48994;DHT22;34804;49.214;12.276;2023-11-19T03:01:41;4.50;94.40
48994;DHT22;34804;49.214;12.276;2023-11-19T03:04:10;4.50;94.40
48994;DHT22;34804;49.214;12.276;2023-11-19T03:06:39;4.50;94.50
48994;DHT22;34804;49.214;12.276;2023-11-19T03:09:06;4.50;94.50
48994;DHT22;34804;49.214;12.276;2023-11-19T03:11:34;4.50;94.40
48994;DHT22;34804;49.214;12.276;2023-11-19T03:14:01;4.40;94.50
48994;DHT22;34804;49.214;12.276;2023-11-19T03:16:29;4.40;94.50
48994;DHT22;34804;49.214;12.276;2023-11-19T03:18:56;4.30;94.50
48994;DHT22;34804;49.214;12.276;2023-11-19T03:21:30;4.40;94.60
48994;DHT22;34804;49.214;12.276;2023-11-19T03:23:58;4.40;94.50
48994;DHT22;34804;49.214;12.276;2023-11-19T03:26:28;4.40;94.60
48994;DHT22;34804;49.214;12.276;2023-11-19T03:28:55;4.40;94.60
48994;DHT22;34804;49.214;12.276;2023-11-19T03:31:23;4.50;94.60
48994;DHT22;34804;49.214;12.276;2023-11-19T03:33:51;4.50;94.60
48994;DHT22;34804;49.214;12.276;2023-11-19T03:36:18;4.50;94.50
48994;DHT22;34804;49.214;12.276;2023-11-19T03:38:45;4.50;94.40
48994;DHT22;34804;49.214;12.276;2023-11-19T03:41:13;4.50;94.40
48994;DHT22;34804;49.214;12.276;2023-11-19T03:43:41;4.60;94.30
48994;DHT22;34804;49.214;12.276;2023-11-19T03:46:20;4.60;94.20
48994;DHT22;34804;49.214;12.276;2023-11-19T03:48:50;4.60;94.40
48994;DHT22;34804;49.214;12.276;2023-11-19T03:51:17;4.60;94.40
48994;DHT22;34804;49.214;12.276;2023-11-19T03:53:47;4.60;94.40
48994;DHT22;34804;49.214;12.276;2023-11-19T03:56:14;4.60;94.40
48994;DHT22;34804;49.214;12.276;2023-11-19T03:58:41;4.60;94.40
48994;DHT22;34804;49.214;12.276;2023-11-19T04:01:11;4.60;94.10
48994;DHT22;34804;49.214;12.276;2023-11-19T04:03:42;4.50;94.00
48994;DHT22;34804;49.214;12.276;2023-11-19T04:06:12;4.50;94.10
48994;DHT22;34804;49.214;12.276;2023-11-19T04:08:39;4.50;94.10
48994;DHT22;34804;49.214;12.276;2023-11-19T04:11:05;4.50;94.10
48994;DHT22;34804;49.214;12.276;2023-11-19T04:13:32;4.50;94.30
48994;DHT22;34804;49.214;12.276;2023-11-19T04:15:59;4.50;94.20
48994;DHT22;34804;49.214;12.276;2023-11-19T04:18:26;4.50;94.40
48994;DHT22;34804;49.214;12.276;2023-11-19T04:20:53;4.40;94.30
48994;DHT22;34804;49.214;12.276;2023-11-19T04:23:20;4.40;94.50
48994;DHT22;34804;49.214;12.276;2023-11-19T04:25:47;4.50;94.60
48994;DHT22;34804;49.214;12.276;2023-11-19T04:28:14;4.50;94.60
48994;DHT22;34804;49.214;12.276;2023-11-19T04:30:41;4.60;94.60
48994;DHT22;34804;49.214;12.276;2023-11-19T04:33:08;4.50;94.60
48994;DHT22;34804;49.214;12.276;2023-11-19T04:35:35;4.50;94.50
48994;DHT22;34804;49.214;12.276;2023-11-19T04:38:02;4.40;94.60
48994;DHT22;34804;49.214;12.276;2023-11-19T04:40:28;4.40;94.70
48994;DHT22;34804;49.214;12.276;2023-11-19T04:42:55;4.40;94.80
48994;DHT22;34804;49.214;12.276;2023-11-19T04:45:22;4.50;94.90
48994;DHT22;34804;49.214;12.276;2023-11-19T04:47:52;4.50;94.80
48994;DHT22;34804;49.214;12.276;2023-11-19T04:50:19;4.50;94.70
48994;DHT22;34804;49.214;12.276;2023-11-19T04:52:46;4.50;94.60
48994;DHT22;34804;49.214;12.276;2023-11-19T04:55:12;4.60;94.80
48994;DHT22;34804;49.214;12.276;2023-11-19T04:57:40;4.60;94.90
48994;DHT22;34804;49.214;12.276;2023-11-19T05:00:08;4.70;94.70
48994;DHT22;34804;49.214;12.276;2023-11-19T05:02:38;4.70;94.60
48994;DHT22;34804;49.214;12.276;2023-11-19T05:05:05;4.70;94.40
48994;DHT22;34804;49.214;12.276;2023-11-19T05:07:32;4.70;94.30
48994;DHT22;34804;49.214;12.276;2023-11-19T05:09:59;4.60;94.30
48994;DHT22;34804;49.214;12.276;2023-11-19T05:12:27;4.60;94.20
48994;DHT22;34804;49.214;12.276;2023-11-19T05:14:53;4.60;94.00
48994;DHT22;34804;49.214;12.276;2023-11-19T05:17:20;4.60;93.90
48994;DHT22;34804;49.214;12.276;2023-11-19T05:19:47;4.60;93.90
48994;DHT22;34804;49.214;12.276;2023-11-19T05:22:15;4.60;94.00
48994;DHT22;34804;49.214;12.276;2023-11-19T05:24:42;4.60;94.00
48994;DHT22;34804;49.214;12.276;2023-11-19T05:27:09;4.60;94.10
48994;DHT22;34804;49.214;12.276;2023-11-19T05:29:37;4.60;94.20
48994;DHT22;34804;49.214;12.276;2023-11-19T05:32:05;4.60;94.00
48994;DHT22;34804;49.214;12.276;2023-11-19T05:34:33;4.60;94.30
48994;DHT22;34804;49.214;12.276;2023-11-19T05:37:00;4.60;94.40
48994;DHT22;34804;49.214;12.276;2023-11-19T05:39:28;4.50;94.50
48994;DHT22;34804;49.214;12.276;2023-11-19T05:41:55;4.50;94.40
48994;DHT22;34804;49.214;12.276;2023-11-19T05:44:21;4.50;94.20
48994;DHT22;34804;49.214;12.276;2023-11-19T05:46:48;4.50;94.40
48994;DHT22;34804;49.214;12.276;2023-11-19T05:49:15;4.50;94.50
48994;DHT22;34804;49.214;12.276;2023-11-19T05:51:42;4.50;94.60
48994;DHT22;34804;49.214;12.276;2023-11-19T05:54:09;4.50;94.60
48994;DHT22;34804;49.214;12.276;2023-11-19T05:56:37;4.60;94.50
48994;DHT22;34804;49.214;12.276;2023-11-19T05:59:04;4.50;94.40
48994;DHT22;34804;49.214;12.276;2023-11-19T06:01:34;4.50;94.50
48994;DHT22;34804;49.214;12.276;2023-11-19T06:04:01;4.50;94.60
48994;DHT22;34804;49.214;12.276;2023-11-19T06:06:28;4.50;94.70
48994;DHT22;34804;49.214;12.276;2023-11-19T06:08:55;4.50;94.80
48994;DHT22;34804;49.214;12.276;2023-11-19T06:11:22;4.50;94.70
48994;DHT22;34804;49.214;12.276;2023-11-19T06:13:49;4.60;94.80
48994;DHT22;34804;49.214;12.276;2023-11-19T06:16:18;4.50;94.80
48994;DHT22;34804;49.214;12.276;2023-11-19T06:18:45;4.60;94.80
48994;DHT22;34804;49.214;12.276;2023-11-19T06:21:12;4.60;94.90
48994;DHT22;34804;49.214;12.276;2023-11-19T06:23:39;4.60;95.00
48994;DHT22;34804;49.214;12.276;2023-11-19T06:26:06;4.60;95.00
48994;DHT22;34804;49.214;12.276;2023-11-19T06:28:34;4.70;95.00
48994;DHT22;34804;49.214;12.276;2023-11-19T06:31:00;4.70;95.10
48994;DHT22;34804;49.214;12.276;2023-11-19T06:33:28;4.70;95.20
48994;DHT22;34804;49.214;12.276;2023-11-19T06:35:55;4.70;95.10
48994;DHT22;34804;49.214;12.276;2023-11-19T06:38:21;4.80;95.20
48994;DHT22;34804;49.214;12.276;2023-11-19T06:40:48;4.80;95.30
48994;DHT22;34804;49.214;12.276;2023-11-19T06:43:20;4.80;95.30
48994;DHT22;34804;49.214;12.276;2023-11-19T06:45:47;4.80;95.40
48994;DHT22;34804;49.214;12.276;2023-11-19T06:48:14;4.90;95.30
48994;DHT22;34804;49.214;12.276;2023-11-19T06:50:41;4.80;95.60
48994;DHT22;34804;49.214;12.276;2023-11-19T06:53:08;4.80;95.60
48994;DHT22;34804;49.214;12.276;2023-11-19T06:55:37;4.80;95.70
48994;DHT22;34804;49.214;12.276;2023-11-19T06:58:05;4.90;95.70
48994;DHT22;34804;49.214;12.276;2023-11-19T07:00:32;4.90;95.90
48994;DHT22;34804;49.214;12.276;2023-11-19T07:02:59;4.90;95.90
48994;DHT22;34804;49.214;12.276;2023-11-19T07:05:27;5.00;95.90
48994;DHT22;34804;49.214;12.276;2023-11-19T07:07:54;5.00;95.90
48994;DHT22;34804;49.214;12.276;2023-11-19T07:10:22;5.00;95.90
48994;DHT22;34804;49.214;12.276;2023-11-19T07:12:49;5.10;96.00
48994;DHT22;34804;49.214;12.276;2023-11-19T07:15:17;5.10;96.00
48994;DHT22;34804;49.214;12.276;2023-11-19T07:17:44;5.10;95.90
48994;DHT22;34804;49.214;12.276;2023-11-19T07:20:12;5.10;95.90
48994;DHT22;34804;49.214;12.276;2023-11-19T07:22:43;5.00;95.90
48994;DHT22;34804;49.214;12.276;2023-11-19T07:25:15;5.00;95.80
48994;DHT22;34804;49.214;12.276;2023-11-19T07:27:42;5.10;95.90
48994;DHT22;34804;49.214;12.276;2023-11-19T07:30:09;5.10;96.00
48994;DHT22;34804;49.214;12.276;2023-11-19T07:32:36;5.10;96.00
48994;DHT22;34804;49.214;12.276;2023-11-19T07:35:06;5.10;96.10
48994;DHT22;34804;49.214;12.276;2023-11-19T07:37:33;5.10;96.00
48994;DHT22;34804;49.214;12.276;2023-11-19T07:40:00;5.10;96.00
48994;DHT22;34804;49.214;12.276;2023-11-19T07:42:27;5.20;96.10
48994;DHT22;34804;49.214;12.276;2023-11-19T07:44:54;5.20;96.00
48994;DHT22;34804;49.214;12.276;2023-11-19T07:47:23;5.10;96.00
48994;DHT22;34804;49.214;12.276;2023-11-19T07:49:50;5.20;96.00
48994;DHT22;34804;49.214;12.276;2023-11-19T07:52:18;5.30;96.00
48994;DHT22;34804;49.214;12.276;2023-11-19T07:54:48;5.30;96.00
48994;DHT22;34804;49.214;12.276;2023-11-19T07:57:15;5.30;96.20
48994;DHT22;34804;49.214;12.276;2023-11-19T07:59:42;5.40;96.10
48994;DHT22;34804;49.214;12.276;2023-11-19T08:02:10;5.50;96.10
48994;DHT22;34804;49.214;12.276;2023-11-19T08:04:37;5.50;96.00
48994;DHT22;34804;49.214;12.276;2023-11-19T08:07:06;5.50;95.90
48994;DHT22;34804;49.214;12.276;2023-11-19T08:09:33;5.60;95.90
48994;DHT22;34804;49.214;12.276;2023-11-19T08:12:00;5.70;95.80
48994;DHT22;34804;49.214;12.276;2023-11-19T08:14:27;5.70;95.80
48994;DHT22;34804;49.214;12.276;2023-11-19T08:16:54;5.80;95.60
48994;DHT22;34804;49.214;12.276;2023-11-19T08:19:21;5.80;95.50
48994;DHT22;34804;49.214;12.276;2023-11-19T08:21:48;5.80;95.60
48994;DHT22;34804;49.214;12.276;2023-11-19T08:24:15;5.80;95.60
48994;DHT22;34804;49.214;12.276;2023-11-19T08:26:41;5.80;95.60
48994;DHT22;34804;49.214;12.276;2023-11-19T08:29:09;6.00;95.60
48994;DHT22;34804;49.214;12.276;2023-11-19T08:31:35;6.10;95.70
48994;DHT22;34804;49.214;12.276;2023-11-19T08:34:02;6.10;95.60
48994;DHT22;34804;49.214;12.276;2023-11-19T08:36:29;6.10;95.50
48994;DHT22;34804;49.214;12.276;2023-11-19T08:38:58;6.10;95.60
48994;DHT22;34804;49.214;12.276;2023-11-19T08:41:25;6.10;95.60
48994;DHT22;34804;49.214;12.276;2023-11-19T08:43:52;6.10;95.60
48994;DHT22;34804;49.214;12.276;2023-11-19T08:46:19;6.10;95.60
48994;DHT22;34804;49.214;12.276;2023-11-19T08:48:46;6.20;95.70
48994;DHT22;34804;49.214;12.276;2023-11-19T08:51:13;6.20;95.80
48994;DHT22;34804;49.214;12.276;2023-11-19T08:53:40;6.30;95.80
48994;DHT22;34804;49.214;12.276;2023-11-19T08:56:07;6.30;95.80
48994;DHT22;34804;49.214;12.276;2023-11-19T08:58:34;6.40;95.90
48994;DHT22;34804;49.214;12.276;2023-11-19T09:01:01;6.40;95.80
48994;DHT22;34804;49.214;12.276;2023-11-19T09:03:31;6.50;95.90
48994;DHT22;34804;49.214;12.276;2023-11-19T09:06:00;6.60;95.90
48994;DHT22;34804;49.214;12.276;2023-11-19T09:08:27;6.60;96.00
48994;DHT22;34804;49.214;12.276;2023-11-19T09:10:54;6.80;96.10
48994;DHT22;34804;49.214;12.276;2023-11-19T09:13:20;6.80;96.20
48994;DHT22;34804;49.214;12.276;2023-11-19T09:15:47;7.00;96.30
48994;DHT22;34804;49.214;12.276;2023-11-19T09:18:14;7.00;96.10
48994;DHT22;34804;49.214;12.276;2023-11-19T09:20:41;7.10;96.00
48994;DHT22;34804;49.214;12.276;2023-11-19T09:23:08;7.10;96.00
48994;DHT22;34804;49.214;12.276;2023-11-19T09:25:36;7.20;95.90
48994;DHT22;34804;49.214;12.276;2023-11-19T09:28:05;7.20;95.90
48994;DHT22;34804;49.214;12.276;2023-11-19T09:30:32;7.20;96.00
48994;DHT22;34804;49.214;12.276;2023-11-19T09:33:00;7.20;96.00
48994;DHT22;34804;49.214;12.276;2023-11-19T09:35:28;7.20;96.00
48994;DHT22;34804;49.214;12.276;2023-11-19T09:37:55;7.30;96.30
48994;DHT22;34804;49.214;12.276;2023-11-19T09:40:22;7.30;96.40
48994;DHT22;34804;49.214;12.276;2023-11-19T09:42:48;7.40;96.40
48994;DHT22;34804;49.214;12.276;2023-11-19T09:45:16;7.50;96.40
48994;DHT22;34804;49.214;12.276;2023-11-19T09:47:45;7.50;96.50
48994;DHT22;34804;49.214;12.276;2023-11-19T09:50:19;7.50;96.30
48994;DHT22;34804;49.214;12.276;2023-11-19T09:52:47;7.50;96.30
48994;DHT22;34804;49.214;12.276;2023-11-19T09:55:15;7.60;96.20
48994;DHT22;34804;49.214;12.276;2023-11-19T09:57:42;7.70;96.20
48994;DHT22;34804;49.214;12.276;2023-11-19T10:00:11;7.80;96.30
48994;DHT22;34804;49.214;12.276;2023-11-19T10:02:40;7.80;96.20
48994;DHT22;34804;49.214;12.276;2023-11-19T10:05:09;7.80;96.30
48994;DHT22;34804;49.214;12.276;2023-11-19T10:07:37;7.80;96.20
48994;DHT22;34804;49.214;12.276;2023-11-19T10:10:04;8.00;96.30
48994;DHT22;34804;49.214;12.276;2023-11-19T10:12:32;8.00;96.30
48994;DHT22;34804;49.214;12.276;2023-11-19T10:15:01;8.10;96.00
48994;DHT22;34804;49.214;12.276;2023-11-19T10:17:32;8.30;96.00
48994;DHT22;34804;49.214;12.276;2023-11-19T10:19:59;8.30;95.90
48994;DHT22;34804;49.214;12.276;2023-11-19T10:22:27;8.50;95.70
48994;DHT22;34804;49.214;12.276;2023-11-19T10:24:54;8.80;95.80
48994;DHT22;34804;49.214;12.276;2023-11-19T10:27:24;9.00;95.80
48994;DHT22;34804;49.214;12.276;2023-11-19T10:29:52;9.10;94.80
48994;DHT22;34804;49.214;12.276;2023-11-19T10:32:19;9.30;94.90
48994;DHT22;34804;49.214;12.276;2023-11-19T10:35:03;9.70;94.80
48994;DHT22;34804;49.214;12.276;2023-11-19T10:37:31;10.00;93.90
48994;DHT22;34804;49.214;12.276;2023-11-19T10:39:59;9.90;93.10
48994;DHT22;34804;49.214;12.276;2023-11-19T10:42:27;9.80;93.30
48994;DHT22;34804;49.214;12.276;2023-11-19T10:44:54;9.80;93.60
48994;DHT22;34804;49.214;12.276;2023-11-19T10:47:22;9.80;93.40
48994;DHT22;34804;49.214;12.276;2023-11-19T10:49:53;9.70;93.70
48994;DHT22;34804;49.214;12.276;2023-11-19T10:52:20;9.70;94.30
48994;DHT22;34804;49.214;12.276;2023-11-19T10:54:51;9.70;94.30
48994;DHT22;34804;49.214;12.276;2023-11-19T10:57:21;9.80;94.40
48994;DHT22;34804;49.214;12.276;2023-11-19T10:59:57;9.90;94.50
48994;DHT22;34804;49.214;12.276;2023-11-19T11:02:30;9.90;94.50
48994;DHT22;34804;49.214;12.276;2023-11-19T11:05:01;9.80;94.40
48994;DHT22;34804;49.214;12.276;2023-11-19T11:07:31;9.90;94.80
48994;DHT22;34804;49.214;12.276;2023-11-19T11:10:07;9.80;95.00
48994;DHT22;34804;49.214;12.276;2023-11-19T11:12:37;9.70;94.90
48994;DHT22;34804;49.214;12.276;2023-11-19T11:15:06;9.60;94.90
48994;DHT22;34804;49.214;12.276;2023-11-19T11:17:34;9.60;95.10
48994;DHT22;34804;49.214;12.276;2023-11-19T11:20:01;9.60;95.20
48994;DHT22;34804;49.214;12.276;2023-11-19T11:22:38;9.60;95.20
48994;DHT22;34804;49.214;12.276;2023-11-19T11:28:10;9.60;95.30
48994;DHT22;34804;49.214;12.276;2023-11-19T11:33:46;9.60;95.70
48994;DHT22;34804;49.214;12.276;2023-11-19T11:36:24;9.70;95.80
48994;DHT22;34804;49.214;12.276;2023-11-19T11:38:52;9.90;95.90
48994;DHT22;34804;49.214;12.276;2023-11-19T11:41:24;10.00;95.70
48994;DHT22;34804;49.214;12.276;2023-11-19T11:43:56;10.40;95.80
48994;DHT22;34804;49.214;12.276;2023-11-19T11:49:06;11.10;95.00
48994;DHT22;34804;49.214;12.276;2023-11-19T11:54:31;13.10;89.10
48994;DHT22;34804;49.214;12.276;2023-11-19T11:57:08;13.70;86.10
48994;DHT22;34804;49.214;12.276;2023-11-19T12:02:08;13.40;86.00
48994;DHT22;34804;49.214;12.276;2023-11-19T12:04:36;13.20;85.50
48994;DHT22;34804;49.214;12.276;2023-11-19T12:07:04;12.80;87.00
48994;DHT22;34804;49.214;12.276;2023-11-19T12:09:33;12.40;87.60
48994;DHT22;34804;49.214;12.276;2023-11-19T12:12:23;12.20;88.80
48994;DHT22;34804;49.214;12.276;2023-11-19T12:14:59;11.80;89.80
48994;DHT22;34804;49.214;12.276;2023-11-19T12:20:00;11.60;91.00
48994;DHT22;34804;49.214;12.276;2023-11-19T12:22:28;11.60;91.60
48994;DHT22;34804;49.214;12.276;2023-11-19T12:24:55;11.50;91.60
48994;DHT22;34804;49.214;12.276;2023-11-19T12:27:23;11.40;92.30
48994;DHT22;34804;49.214;12.276;2023-11-19T12:29:50;11.30;92.50
48994;DHT22;34804;49.214;12.276;2023-11-19T12:32:17;11.40;93.00
48994;DHT22;34804;49.214;12.276;2023-11-19T12:34:45;11.50;92.70
48994;DHT22;34804;49.214;12.276;2023-11-19T12:37:12;11.70;92.70
48994;DHT22;34804;49.214;12.276;2023-11-19T12:39:39;11.60;91.90
48994;DHT22;34804;49.214;12.276;2023-11-19T12:42:07;11.50;92.50
48994;DHT22;34804;49.214;12.276;2023-11-19T12:44:34;12.30;91.60
48994;DHT22;34804;49.214;12.276;2023-11-19T12:47:05;12.90;89.70
48994;DHT22;34804;49.214;12.276;2023-11-19T12:49:33;14.10;85.20
48994;DHT22;34804;49.214;12.276;2023-11-19T12:52:00;14.70;83.20
48994;DHT22;34804;49.214;12.276;2023-11-19T12:54:35;14.70;81.80
48994;DHT22;34804;49.214;12.276;2023-11-19T12:57:04;14.60;83.00
48994;DHT22;34804;49.214;12.276;2023-11-19T12:59:31;15.00;83.30
48994;DHT22;34804;49.214;12.276;2023-11-19T13:01:58;14.20;82.70
48994;DHT22;34804;49.214;12.276;2023-11-19T13:04:30;13.50;83.70
48994;DHT22;34804;49.214;12.276;2023-11-19T13:07:00;13.00;86.10
48994;DHT22;34804;49.214;12.276;2023-11-19T13:09:29;12.60;85.90
48994;DHT22;34804;49.214;12.276;2023-11-19T13:11:57;12.40;87.30
48994;DHT22;34804;49.214;12.276;2023-11-19T13:14:36;12.30;87.40
48994;DHT22;34804;49.214;12.276;2023-11-19T13:17:04;12.20;88.40
48994;DHT22;34804;49.214;12.276;2023-11-19T13:19:32;12.10;88.70
48994;DHT22;34804;49.214;12.276;2023-11-19T13:21:59;12.20;89.40
48994;DHT22;34804;49.214;12.276;2023-11-19T13:24:26;12.30;88.10
48994;DHT22;34804;49.214;12.276;2023-11-19T13:26:52;12.40;88.50
48994;DHT22;34804;49.214;12.276;2023-11-19T13:29:19;12.40;89.20
48994;DHT22;34804;49.214;12.276;2023-11-19T13:31:46;12.30;88.50
48994;DHT22;34804;49.214;12.276;2023-11-19T13:34:13;12.30;89.20
48994;DHT22;34804;49.214;12.276;2023-11-19T13:36:41;12.40;88.20
48994;DHT22;34804;49.214;12.276;2023-11-19T13:39:08;12.40;87.70
48994;DHT22;34804;49.214;12.276;2023-11-19T13:41:35;12.60;87.40
48994;DHT22;34804;49.214;12.276;2023-11-19T13:44:02;12.50;87.70
48994;DHT22;34804;49.214;12.276;2023-11-19T13:46:29;12.30;88.30
48994;DHT22;34804;49.214;12.276;2023-11-19T13:48:56;12.30;87.30
48994;DHT22;34804;49.214;12.276;2023-11-19T13:51:23;12.20;88.10
48994;DHT22;34804;49.214;12.276;2023-11-19T13:53:52;12.30;87.30
48994;DHT22;34804;49.214;12.276;2023-11-19T13:56:19;12.40;87.00
48994;DHT22;34804;49.214;12.276;2023-11-19T13:58:46;12.50;86.80
48994;DHT22;34804;49.214;12.276;2023-11-19T14:01:13;12.70;85.70
48994;DHT22;34804;49.214;12.276;2023-11-19T14:03:41;12.80;85.40
48994;DHT22;34804;49.214;12.276;2023-11-19T14:06:09;12.80;85.00
48994;DHT22;34804;49.214;12.276;2023-11-19T14:08:36;12.90;84.60
48994;DHT22;34804;49.214;12.276;2023-11-19T14:11:03;12.80;84.70
48994;DHT22;34804;49.214;12.276;2023-11-19T14:13:30;12.70;85.10
48994;DHT22;34804;49.214;12.276;2023-11-19T14:15:57;12.50;85.60
48994;DHT22;34804;49.214;12.276;2023-11-19T14:18:24;12.40;85.10
48994;DHT22;34804;49.214;12.276;2023-11-19T14:20:50;12.40;85.10
48994;DHT22;34804;49.214;12.276;2023-11-19T14:23:18;12.50;84.00
48994;DHT22;34804;49.214;12.276;2023-11-19T14:25:45;13.10;82.10
48994;DHT22;34804;49.214;12.276;2023-11-19T14:28:12;13.00;82.70
48994;DHT22;34804;49.214;12.276;2023-11-19T14:30:41;13.80;80.10
48994;DHT22;34804;49.214;12.276;2023-11-19T14:33:08;13.90;78.60
48994;DHT22;34804;49.214;12.276;2023-11-19T14:35:35;13.80;80.60
48994;DHT22;34804;49.214;12.276;2023-11-19T14:38:02;14.30;78.90
48994;DHT22;34804;49.214;12.276;2023-11-19T14:40:32;14.50;77.40
48994;DHT22;34804;49.214;12.276;2023-11-19T14:43:01;14.30;76.60
48994;DHT22;34804;49.214;12.276;2023-11-19T14:45:29;13.90;78.40
48994;DHT22;34804;49.214;12.276;2023-11-19T14:48:04;13.70;79.60
48994;DHT22;34804;49.214;12.276;2023-11-19T14:50:32;13.60;79.70
48994;DHT22;34804;49.214;12.276;2023-11-19T14:52:59;13.20;79.50
48994;DHT22;34804;49.214;12.276;2023-11-19T14:55:26;13.00;80.60
48994;DHT22;34804;49.214;12.276;2023-11-19T14:57:53;12.80;80.30
48994;DHT22;34804;49.214;12.276;2023-11-19T15:00:32;12.80;79.90
48994;DHT22;34804;49.214;12.276;2023-11-19T15:03:00;12.60;80.40
48994;DHT22;34804;49.214;12.276;2023-11-19T15:05:29;12.40;80.50
48994;DHT22;34804;49.214;12.276;2023-11-19T15:07:57;12.30;80.80
48994;DHT22;34804;49.214;12.276;2023-11-19T15:10:23;12.10;80.50
48994;DHT22;34804;49.214;12.276;2023-11-19T15:12:52;11.90;81.10
48994;DHT22;34804;49.214;12.276;2023-11-19T15:15:20;11.80;82.00
48994;DHT22;34804;49.214;12.276;2023-11-19T15:17:50;11.50;82.50
48994;DHT22;34804;49.214;12.276;2023-11-19T15:20:17;11.40;82.60
48994;DHT22;34804;49.214;12.276;2023-11-19T15:22:46;11.30;82.60
48994;DHT22;34804;49.214;12.276;2023-11-19T15:25:13;11.30;82.80
48994;DHT22;34804;49.214;12.276;2023-11-19T15:27:40;11.20;83.20
48994;DHT22;34804;49.214;12.276;2023-11-19T15:30:07;11.10;83.60
48994;DHT22;34804;49.214;12.276;2023-11-19T15:32:37;10.90;83.90
48994;DHT22;34804;49.214;12.276;2023-11-19T15:35:06;10.80;84.30
48994;DHT22;34804;49.214;12.276;2023-11-19T15:37:34;10.80;84.50
48994;DHT22;34804;49.214;12.276;2023-11-19T15:40:02;10.70;84.90
48994;DHT22;34804;49.214;12.276;2023-11-19T15:42:32;10.60;84.80
48994;DHT22;34804;49.214;12.276;2023-11-19T15:44:59;10.50;85.20
48994;DHT22;34804;49.214;12.276;2023-11-19T15:47:26;10.40;85.70
48994;DHT22;34804;49.214;12.276;2023-11-19T15:49:53;10.50;85.40